createdAt,value
2024-03-28T00:08:56.318Z,79
2024-03-28T00:18:56.303Z,78.8
2024-03-28T00:28:56.264Z,78.4
2024-03-28T00:38:56.233Z,78.4
2024-03-28T00:48:56.202Z,78.6
2024-03-28T00:58:56.155Z,78.6
2024-03-28T01:08:56.138Z,78.8
2024-03-28T01:18:56.113Z,78.8
2024-03-28T01:28:56.072Z,78.6
2024-03-28T01:38:56.034Z,79
2024-03-28T01:48:55.987Z,79.2
2024-03-28T01:58:55.949Z,79.6
2024-03-28T02:08:55.918Z,79.8
2024-03-28T02:18:55.902Z,79.8
2024-03-28T02:28:55.847Z,79.8
2024-03-28T02:38:55.838Z,80.2
2024-03-28T02:48:55.792Z,80
2024-03-28T02:58:55.742Z,80.2
2024-03-28T03:08:55.728Z,80.4
2024-03-28T03:18:55.685Z,80.4
2024-03-28T03:28:55.655Z,80.6
2024-03-28T03:38:55.616Z,80.8
2024-03-28T03:48:55.589Z,80.8
2024-03-28T03:58:55.537Z,81
2024-03-28T04:08:55.523Z,80.8
2024-03-28T04:18:55.488Z,80.8
2024-03-28T04:28:55.453Z,80.8
2024-03-28T04:38:55.431Z,80.6
2024-03-28T04:48:55.383Z,80.2
2024-03-28T04:58:55.346Z,80.4
2024-03-28T05:08:55.321Z,80.4
2024-03-28T05:18:55.291Z,80.2
2024-03-28T05:28:55.249Z,80
2024-03-28T05:38:55.221Z,80
2024-03-28T05:48:55.186Z,80
2024-03-28T05:58:55.127Z,79.8
2024-03-28T06:08:55.105Z,79.6
2024-03-28T06:18:55.086Z,78.6
2024-03-28T06:28:55.054Z,78
2024-03-28T06:38:55.024Z,77.8
2024-03-28T06:48:54.971Z,76.6
2024-03-28T06:58:54.940Z,75.6
2024-03-28T07:08:54.910Z,75.4
2024-03-28T07:18:54.879Z,75
2024-03-28T07:28:54.828Z,74.8
2024-03-28T07:38:54.808Z,74.6
2024-03-28T07:48:54.776Z,76
2024-03-28T07:58:54.735Z,78.6
2024-03-28T08:08:55.081Z,81.6
2024-03-28T08:18:54.958Z,84.4
2024-03-28T08:28:54.655Z,85.2
2024-03-28T08:38:54.612Z,85.8
2024-03-28T08:48:54.572Z,86.4
2024-03-28T08:58:54.565Z,87
2024-03-28T09:08:54.500Z,87.4
2024-03-28T09:18:54.455Z,87.6
2024-03-28T09:28:54.432Z,88
2024-03-28T09:38:54.399Z,87.8
2024-03-28T09:48:54.372Z,87.4
2024-03-28T09:58:54.339Z,87.2
2024-03-28T10:08:54.328Z,87.2
2024-03-28T10:18:54.268Z,86.6
2024-03-28T10:28:54.233Z,84.8
2024-03-28T10:38:54.204Z,84
2024-03-28T10:48:54.503Z,83.4
2024-03-28T10:58:54.438Z,82.8
2024-03-28T11:08:54.099Z,82.4
2024-03-28T11:18:54.042Z,81
2024-03-28T11:28:54.007Z,77.8
2024-03-28T11:38:53.983Z,86.8
2024-03-28T11:48:53.952Z,91.6
2024-03-28T11:58:53.921Z,92.2
2024-03-28T12:08:53.887Z,90.4
2024-03-28T12:18:53.855Z,84.8
2024-03-28T12:28:53.799Z,77.6
2024-03-28T12:38:53.772Z,76.2
2024-03-28T12:48:53.727Z,76.2
2024-03-28T12:58:53.709Z,78
2024-03-28T13:08:53.675Z,78.2
2024-03-28T13:18:53.654Z,75.8
2024-03-28T13:28:53.594Z,78.4
2024-03-28T13:38:53.549Z,85.4
2024-03-28T13:48:53.523Z,84
2024-03-28T13:58:53.494Z,79.2
2024-03-28T14:08:53.450Z,75.2
2024-03-28T14:18:53.408Z,74
2024-03-28T14:28:53.367Z,74.2
2024-03-28T14:38:53.344Z,71
2024-03-28T14:48:53.303Z,67
2024-03-28T14:58:53.264Z,62.4
2024-03-28T15:08:53.222Z,61.4
2024-03-28T15:18:53.202Z,62.2
2024-03-28T15:28:53.147Z,63.8
2024-03-28T15:38:53.153Z,65.8
2024-03-28T15:48:53.093Z,67.4
2024-03-28T15:58:53.056Z,67.6
2024-03-28T16:08:53.023Z,68.4
2024-03-28T16:18:52.971Z,69.2
2024-03-28T16:28:52.943Z,69
2024-03-28T16:38:52.905Z,69.2
2024-03-28T16:48:52.876Z,69
2024-03-28T16:58:52.828Z,69.2
2024-03-28T17:08:52.805Z,70
2024-03-28T17:18:52.769Z,70.4
2024-03-28T17:28:52.709Z,70.8
2024-03-28T17:38:52.701Z,70.4
2024-03-28T17:48:52.665Z,70.6
2024-03-28T17:58:52.615Z,70.6
2024-03-28T18:08:52.582Z,71
2024-03-28T18:18:52.545Z,71.8
2024-03-28T18:28:52.518Z,72.4
2024-03-28T18:38:52.465Z,73.2
2024-03-28T18:48:52.454Z,73.4
2024-03-28T18:58:52.406Z,73.4
2024-03-28T19:08:52.407Z,73.2
2024-03-28T19:18:52.328Z,72.8
2024-03-28T19:28:52.301Z,72.2
2024-03-28T19:38:52.270Z,71.6
2024-03-28T19:48:52.211Z,71.2
2024-03-28T19:58:52.211Z,70.6
2024-03-28T20:08:52.169Z,69.4
2024-03-28T20:18:52.132Z,68.4
2024-03-28T20:28:52.093Z,68.6
2024-03-28T20:38:52.059Z,68.6
2024-03-28T20:48:52.017Z,68.2
2024-03-28T20:58:51.984Z,68.6
2024-03-28T21:08:51.948Z,69.2
2024-03-28T21:18:51.922Z,69.2
2024-03-28T21:28:51.878Z,69.6
2024-03-28T21:38:51.838Z,69.6
2024-03-28T21:48:51.815Z,70.2
2024-03-28T21:58:51.773Z,69.8
2024-03-28T22:08:51.741Z,70.6
2024-03-28T22:18:51.705Z,70.8
2024-03-28T22:28:51.674Z,71
2024-03-28T22:38:51.759Z,70.8
2024-03-28T22:48:51.928Z,70.6
2024-03-28T22:58:51.760Z,70.4
2024-03-28T23:08:51.848Z,70.4
2024-03-28T23:18:51.834Z,70.2
2024-03-28T23:28:51.765Z,70.6
2024-03-28T23:38:51.664Z,70.6
2024-03-28T23:48:51.722Z,70.8
2024-03-28T23:58:51.357Z,71.2
